sensor_id;sensor_type;location;lat;lon;timestamp;temperature;humidity
66708;DHT22;53622;0.000;0.000;2023-02-01T00:02:01;19.00;51.90
66708;DHT22;53622;0.000;0.000;2023-02-01T00:04:30;18.90;51.90
66708;DHT22;53622;0.000;0.000;2023-02-01T00:06:59;18.90;52.30
66708;DHT22;53622;0.000;0.000;2023-02-01T00:09:29;18.90;52.20
66708;DHT22;53622;0.000;0.000;2023-02-01T00:12:00;18.90;52.00
66708;DHT22;53622;0.000;0.000;2023-02-01T00:14:30;18.90;52.30
66708;DHT22;53622;0.000;0.000;2023-02-01T00:17:06;18.90;52.30
66708;DHT22;53622;0.000;0.000;2023-02-01T00:19:35;18.90;52.00
66708;DHT22;53622;0.000;0.000;2023-02-01T00:22:04;18.80;52.00
66708;DHT22;53622;0.000;0.000;2023-02-01T00:24:34;18.80;52.30
66708;DHT22;53622;0.000;0.000;2023-02-01T00:27:04;18.80;51.90
66708;DHT22;53622;0.000;0.000;2023-02-01T00:29:34;18.80;52.10
66708;DHT22;53622;0.000;0.000;2023-02-01T00:32:04;18.80;52.20
66708;DHT22;53622;0.000;0.000;2023-02-01T00:34:34;18.80;52.60
66708;DHT22;53622;0.000;0.000;2023-02-01T00:37:03;18.80;52.30
66708;DHT22;53622;0.000;0.000;2023-02-01T00:39:32;18.80;52.20
66708;DHT22;53622;0.000;0.000;2023-02-01T00:42:03;18.80;52.20
66708;DHT22;53622;0.000;0.000;2023-02-01T00:44:32;18.80;52.20
66708;DHT22;53622;0.000;0.000;2023-02-01T00:47:03;18.70;52.10
66708;DHT22;53622;0.000;0.000;2023-02-01T00:49:32;18.70;52.40
66708;DHT22;53622;0.000;0.000;2023-02-01T00:52:01;18.70;53.10
66708;DHT22;53622;0.000;0.000;2023-02-01T00:54:31;18.70;52.10
66708;DHT22;53622;0.000;0.000;2023-02-01T00:57:00;18.70;52.20
66708;DHT22;53622;0.000;0.000;2023-02-01T00:59:31;18.70;52.30
66708;DHT22;53622;0.000;0.000;2023-02-01T01:02:00;18.60;52.70
66708;DHT22;53622;0.000;0.000;2023-02-01T01:04:29;18.70;52.50
66708;DHT22;53622;0.000;0.000;2023-02-01T01:06:59;18.60;52.30
66708;DHT22;53622;0.000;0.000;2023-02-01T01:09:28;18.60;52.50
66708;DHT22;53622;0.000;0.000;2023-02-01T01:11:57;18.60;52.40
66708;DHT22;53622;0.000;0.000;2023-02-01T01:14:33;18.60;52.70
66708;DHT22;53622;0.000;0.000;2023-02-01T01:17:02;18.60;52.40
66708;DHT22;53622;0.000;0.000;2023-02-01T01:19:32;18.60;52.50
66708;DHT22;53622;0.000;0.000;2023-02-01T01:22:01;18.60;52.70
66708;DHT22;53622;0.000;0.000;2023-02-01T01:24:30;18.60;52.50
66708;DHT22;53622;0.000;0.000;2023-02-01T01:26:59;18.50;52.60
66708;DHT22;53622;0.000;0.000;2023-02-01T01:29:29;18.50;52.60
66708;DHT22;53622;0.000;0.000;2023-02-01T01:31:59;18.50;52.90
66708;DHT22;53622;0.000;0.000;2023-02-01T01:34:29;18.50;52.80
66708;DHT22;53622;0.000;0.000;2023-02-01T01:36:58;18.50;52.70
66708;DHT22;53622;0.000;0.000;2023-02-01T01:39:28;18.50;52.70
66708;DHT22;53622;0.000;0.000;2023-02-01T01:41:58;18.50;52.60
66708;DHT22;53622;0.000;0.000;2023-02-01T01:44:57;18.50;53.10
66708;DHT22;53622;0.000;0.000;2023-02-01T01:47:33;18.50;52.90
66708;DHT22;53622;0.000;0.000;2023-02-01T01:50:05;18.50;52.80
66708;DHT22;53622;0.000;0.000;2023-02-01T01:52:36;18.50;53.60
66708;DHT22;53622;0.000;0.000;2023-02-01T01:55:07;18.40;53.30
66708;DHT22;53622;0.000;0.000;2023-02-01T01:57:41;18.40;52.80
66708;DHT22;53622;0.000;0.000;2023-02-01T02:00:14;18.40;52.90
66708;DHT22;53622;0.000;0.000;2023-02-01T02:02:48;18.40;53.30
66708;DHT22;53622;0.000;0.000;2023-02-01T02:05:19;18.40;52.90
66708;DHT22;53622;0.000;0.000;2023-02-01T02:07:50;18.40;53.00
66708;DHT22;53622;0.000;0.000;2023-02-01T02:10:20;18.40;53.60
66708;DHT22;53622;0.000;0.000;2023-02-01T02:13:10;18.40;53.40
66708;DHT22;53622;0.000;0.000;2023-02-01T02:15:43;18.40;53.00
66708;DHT22;53622;0.000;0.000;2023-02-01T02:18:22;18.40;53.80
66708;DHT22;53622;0.000;0.000;2023-02-01T02:21:10;18.40;53.70
66708;DHT22;53622;0.000;0.000;2023-02-01T02:24:08;18.40;53.60
66708;DHT22;53622;0.000;0.000;2023-02-01T02:27:02;18.30;53.60
66708;DHT22;53622;0.000;0.000;2023-02-01T02:29:53;18.40;53.40
66708;DHT22;53622;0.000;0.000;2023-02-01T02:33:15;18.30;53.50
66708;DHT22;53622;0.000;0.000;2023-02-01T02:35:48;18.30;53.70
66708;DHT22;53622;0.000;0.000;2023-02-01T02:38:26;18.30;54.20
66708;DHT22;53622;0.000;0.000;2023-02-01T02:41:05;18.30;54.10
66708;DHT22;53622;0.000;0.000;2023-02-01T02:43:43;18.30;53.50
66708;DHT22;53622;0.000;0.000;2023-02-01T02:46:37;18.30;54.10
66708;DHT22;53622;0.000;0.000;2023-02-01T02:49:31;18.30;54.00
66708;DHT22;53622;0.000;0.000;2023-02-01T02:52:06;18.30;53.70
66708;DHT22;53622;0.000;0.000;2023-02-01T02:54:56;18.20;54.10
66708;DHT22;53622;0.000;0.000;2023-02-01T02:57:29;18.20;54.70
66708;DHT22;53622;0.000;0.000;2023-02-01T03:00:18;18.20;53.80
66708;DHT22;53622;0.000;0.000;2023-02-01T03:03:05;18.20;54.20
66708;DHT22;53622;0.000;0.000;2023-02-01T03:05:54;18.20;54.00
66708;DHT22;53622;0.000;0.000;2023-02-01T03:08:26;18.20;54.20
66708;DHT22;53622;0.000;0.000;2023-02-01T03:10:58;18.20;54.20
66708;DHT22;53622;0.000;0.000;2023-02-01T03:13:35;18.20;54.10
66708;DHT22;53622;0.000;0.000;2023-02-01T03:16:07;18.20;54.90
66708;DHT22;53622;0.000;0.000;2023-02-01T03:18:46;18.20;54.30
66708;DHT22;53622;0.000;0.000;2023-02-01T03:21:22;18.10;54.50
66708;DHT22;53622;0.000;0.000;2023-02-01T03:23:55;18.10;54.00
66708;DHT22;53622;0.000;0.000;2023-02-01T03:26:28;18.10;55.40
66708;DHT22;53622;0.000;0.000;2023-02-01T03:29:05;18.10;54.90
66708;DHT22;53622;0.000;0.000;2023-02-01T03:31:37;18.10;54.30
66708;DHT22;53622;0.000;0.000;2023-02-01T03:34:07;18.10;54.80
66708;DHT22;53622;0.000;0.000;2023-02-01T03:36:40;18.10;55.20
66708;DHT22;53622;0.000;0.000;2023-02-01T03:39:17;18.10;54.90
66708;DHT22;53622;0.000;0.000;2023-02-01T03:41:51;18.10;55.20
66708;DHT22;53622;0.000;0.000;2023-02-01T03:44:24;18.10;55.70
66708;DHT22;53622;0.000;0.000;2023-02-01T03:46:58;18.00;54.70
66708;DHT22;53622;0.000;0.000;2023-02-01T03:49:30;18.00;55.30
66708;DHT22;53622;0.000;0.000;2023-02-01T03:52:06;18.00;54.90
66708;DHT22;53622;0.000;0.000;2023-02-01T03:54:38;18.00;55.30
66708;DHT22;53622;0.000;0.000;2023-02-01T03:57:11;18.10;55.20
66708;DHT22;53622;0.000;0.000;2023-02-01T03:59:44;18.00;54.90
66708;DHT22;53622;0.000;0.000;2023-02-01T04:02:13;18.10;54.90
66708;DHT22;53622;0.000;0.000;2023-02-01T04:04:44;18.00;55.80
66708;DHT22;53622;0.000;0.000;2023-02-01T04:07:17;18.00;55.90
66708;DHT22;53622;0.000;0.000;2023-02-01T04:09:47;18.00;55.40
66708;DHT22;53622;0.000;0.000;2023-02-01T04:12:16;18.00;55.50
66708;DHT22;53622;0.000;0.000;2023-02-01T04:14:45;18.00;55.30
66708;DHT22;53622;0.000;0.000;2023-02-01T04:17:15;18.00;55.90
66708;DHT22;53622;0.000;0.000;2023-02-01T04:19:44;18.00;55.20
66708;DHT22;53622;0.000;0.000;2023-02-01T04:22:13;18.00;55.90
66708;DHT22;53622;0.000;0.000;2023-02-01T04:24:47;17.90;55.70
66708;DHT22;53622;0.000;0.000;2023-02-01T04:27:16;17.90;55.30
66708;DHT22;53622;0.000;0.000;2023-02-01T04:29:45;17.90;56.60
66708;DHT22;53622;0.000;0.000;2023-02-01T04:32:17;17.90;55.60
66708;DHT22;53622;0.000;0.000;2023-02-01T04:34:47;17.90;56.60
66708;DHT22;53622;0.000;0.000;2023-02-01T04:37:16;17.90;56.30
66708;DHT22;53622;0.000;0.000;2023-02-01T04:39:47;17.90;55.90
66708;DHT22;53622;0.000;0.000;2023-02-01T04:42:16;17.90;56.10
66708;DHT22;53622;0.000;0.000;2023-02-01T04:44:46;17.90;56.40
66708;DHT22;53622;0.000;0.000;2023-02-01T04:47:15;17.80;56.30
66708;DHT22;53622;0.000;0.000;2023-02-01T04:49:44;17.90;56.40
66708;DHT22;53622;0.000;0.000;2023-02-01T04:52:14;17.90;55.90
66708;DHT22;53622;0.000;0.000;2023-02-01T04:54:43;17.90;56.50
66708;DHT22;53622;0.000;0.000;2023-02-01T04:57:14;17.80;57.20
66708;DHT22;53622;0.000;0.000;2023-02-01T04:59:43;17.90;57.20
66708;DHT22;53622;0.000;0.000;2023-02-01T05:02:12;17.80;56.50
66708;DHT22;53622;0.000;0.000;2023-02-01T05:04:41;17.80;57.10
66708;DHT22;53622;0.000;0.000;2023-02-01T05:07:11;17.80;56.10
66708;DHT22;53622;0.000;0.000;2023-02-01T05:09:40;17.80;55.80
66708;DHT22;53622;0.000;0.000;2023-02-01T05:12:10;17.80;57.30
66708;DHT22;53622;0.000;0.000;2023-02-01T05:14:58;17.80;56.40
66708;DHT22;53622;0.000;0.000;2023-02-01T05:17:27;17.80;56.10
66708;DHT22;53622;0.000;0.000;2023-02-01T05:19:56;17.80;56.90
66708;DHT22;53622;0.000;0.000;2023-02-01T05:22:26;17.80;56.70
66708;DHT22;53622;0.000;0.000;2023-02-01T05:24:55;17.80;57.00
66708;DHT22;53622;0.000;0.000;2023-02-01T05:27:24;17.80;57.80
66708;DHT22;53622;0.000;0.000;2023-02-01T05:29:54;17.70;57.40
66708;DHT22;53622;0.000;0.000;2023-02-01T05:32:24;17.70;57.30
66708;DHT22;53622;0.000;0.000;2023-02-01T05:34:54;17.70;57.70
66708;DHT22;53622;0.000;0.000;2023-02-01T05:37:24;17.70;57.80
66708;DHT22;53622;0.000;0.000;2023-02-01T05:39:53;17.70;57.50
66708;DHT22;53622;0.000;0.000;2023-02-01T05:42:22;17.70;58.50
66708;DHT22;53622;0.000;0.000;2023-02-01T05:44:52;17.70;57.40
66708;DHT22;53622;0.000;0.000;2023-02-01T05:47:21;17.70;58.30
66708;DHT22;53622;0.000;0.000;2023-02-01T05:49:51;17.70;58.00
66708;DHT22;53622;0.000;0.000;2023-02-01T05:52:21;17.60;58.10
66708;DHT22;53622;0.000;0.000;2023-02-01T05:54:50;17.70;58.40
66708;DHT22;53622;0.000;0.000;2023-02-01T05:57:20;17.60;58.30
66708;DHT22;53622;0.000;0.000;2023-02-01T05:59:49;17.60;58.00
66708;DHT22;53622;0.000;0.000;2023-02-01T06:02:19;17.60;58.30
66708;DHT22;53622;0.000;0.000;2023-02-01T06:04:51;17.60;58.40
66708;DHT22;53622;0.000;0.000;2023-02-01T06:07:20;17.60;58.60
66708;DHT22;53622;0.000;0.000;2023-02-01T06:09:49;17.60;58.00
66708;DHT22;53622;0.000;0.000;2023-02-01T06:12:18;17.60;58.70
66708;DHT22;53622;0.000;0.000;2023-02-01T06:14:48;17.60;58.40
66708;DHT22;53622;0.000;0.000;2023-02-01T06:17:17;17.60;58.30
66708;DHT22;53622;0.000;0.000;2023-02-01T06:19:47;17.60;58.40
66708;DHT22;53622;0.000;0.000;2023-02-01T06:22:18;17.60;56.70
66708;DHT22;53622;0.000;0.000;2023-02-01T06:24:47;17.70;56.60
66708;DHT22;53622;0.000;0.000;2023-02-01T06:27:17;17.80;57.50
66708;DHT22;53622;0.000;0.000;2023-02-01T06:29:46;18.10;56.00
66708;DHT22;53622;0.000;0.000;2023-02-01T06:32:15;18.50;55.20
66708;DHT22;53622;0.000;0.000;2023-02-01T06:34:45;18.80;54.00
66708;DHT22;53622;0.000;0.000;2023-02-01T06:37:15;19.10;53.50
66708;DHT22;53622;0.000;0.000;2023-02-01T06:39:45;19.30;52.80
66708;DHT22;53622;0.000;0.000;2023-02-01T06:42:15;19.50;52.40
66708;DHT22;53622;0.000;0.000;2023-02-01T06:44:45;19.60;51.60
66708;DHT22;53622;0.000;0.000;2023-02-01T06:47:14;19.50;51.30
66708;DHT22;53622;0.000;0.000;2023-02-01T06:49:43;19.30;51.30
66708;DHT22;53622;0.000;0.000;2023-02-01T06:52:13;19.10;51.80
66708;DHT22;53622;0.000;0.000;2023-02-01T06:54:42;19.00;51.80
66708;DHT22;53622;0.000;0.000;2023-02-01T06:57:14;18.90;51.70
66708;DHT22;53622;0.000;0.000;2023-02-01T06:59:43;18.80;51.60
66708;DHT22;53622;0.000;0.000;2023-02-01T07:02:13;18.70;51.40
66708;DHT22;53622;0.000;0.000;2023-02-01T07:04:42;18.60;51.20
66708;DHT22;53622;0.000;0.000;2023-02-01T07:07:11;18.60;51.40
66708;DHT22;53622;0.000;0.000;2023-02-01T07:09:42;18.50;51.20
66708;DHT22;53622;0.000;0.000;2023-02-01T07:12:12;18.40;50.90
66708;DHT22;53622;0.000;0.000;2023-02-01T07:14:42;18.40;50.90
66708;DHT22;53622;0.000;0.000;2023-02-01T07:17:11;18.30;50.70
66708;DHT22;53622;0.000;0.000;2023-02-01T07:19:41;18.30;50.60
66708;DHT22;53622;0.000;0.000;2023-02-01T07:22:10;18.30;50.60
66708;DHT22;53622;0.000;0.000;2023-02-01T07:24:39;18.30;50.80
66708;DHT22;53622;0.000;0.000;2023-02-01T07:27:08;18.20;50.70
66708;DHT22;53622;0.000;0.000;2023-02-01T07:29:40;18.20;50.60
66708;DHT22;53622;0.000;0.000;2023-02-01T07:32:09;18.20;50.70
66708;DHT22;53622;0.000;0.000;2023-02-01T07:34:39;18.20;50.90
66708;DHT22;53622;0.000;0.000;2023-02-01T07:37:08;18.20;50.80
66708;DHT22;53622;0.000;0.000;2023-02-01T07:39:37;18.20;50.90
66708;DHT22;53622;0.000;0.000;2023-02-01T07:42:07;18.20;50.90
66708;DHT22;53622;0.000;0.000;2023-02-01T07:44:36;18.20;51.20
66708;DHT22;53622;0.000;0.000;2023-02-01T07:47:07;18.20;51.00
66708;DHT22;53622;0.000;0.000;2023-02-01T07:49:36;18.20;50.80
66708;DHT22;53622;0.000;0.000;2023-02-01T07:52:05;18.10;50.40
66708;DHT22;53622;0.000;0.000;2023-02-01T07:54:36;18.10;50.60
66708;DHT22;53622;0.000;0.000;2023-02-01T07:57:05;18.10;50.50
66708;DHT22;53622;0.000;0.000;2023-02-01T07:59:36;18.10;50.40
66708;DHT22;53622;0.000;0.000;2023-02-01T08:02:27;18.10;50.40
66708;DHT22;53622;0.000;0.000;2023-02-01T08:04:57;18.10;50.40
66708;DHT22;53622;0.000;0.000;2023-02-01T08:07:26;18.00;50.30
66708;DHT22;53622;0.000;0.000;2023-02-01T08:09:55;18.00;50.40
66708;DHT22;53622;0.000;0.000;2023-02-01T08:12:24;18.00;50.40
66708;DHT22;53622;0.000;0.000;2023-02-01T08:14:54;18.00;50.40
66708;DHT22;53622;0.000;0.000;2023-02-01T08:17:24;18.00;50.30
66708;DHT22;53622;0.000;0.000;2023-02-01T08:19:55;18.00;50.30
66708;DHT22;53622;0.000;0.000;2023-02-01T08:22:26;18.00;50.30
66708;DHT22;53622;0.000;0.000;2023-02-01T08:24:55;17.90;50.10
66708;DHT22;53622;0.000;0.000;2023-02-01T08:27:29;17.90;50.20
66708;DHT22;53622;0.000;0.000;2023-02-01T08:29:58;17.90;50.20
66708;DHT22;53622;0.000;0.000;2023-02-01T08:32:28;17.90;50.10
66708;DHT22;53622;0.000;0.000;2023-02-01T08:34:58;17.90;50.00
66708;DHT22;53622;0.000;0.000;2023-02-01T08:37:28;17.90;50.00
66708;DHT22;53622;0.000;0.000;2023-02-01T08:39:57;17.90;50.00
66708;DHT22;53622;0.000;0.000;2023-02-01T08:42:26;17.80;49.80
66708;DHT22;53622;0.000;0.000;2023-02-01T08:45:13;17.80;49.80
66708;DHT22;53622;0.000;0.000;2023-02-01T08:47:43;17.80;49.80
66708;DHT22;53622;0.000;0.000;2023-02-01T08:50:14;17.80;49.70
66708;DHT22;53622;0.000;0.000;2023-02-01T08:52:43;17.80;49.70
66708;DHT22;53622;0.000;0.000;2023-02-01T08:55:13;17.80;49.70
66708;DHT22;53622;0.000;0.000;2023-02-01T08:57:43;17.80;49.70
66708;DHT22;53622;0.000;0.000;2023-02-01T09:00:15;17.80;49.50
66708;DHT22;53622;0.000;0.000;2023-02-01T09:02:45;17.90;49.50
66708;DHT22;53622;0.000;0.000;2023-02-01T09:05:16;17.90;49.40
66708;DHT22;53622;0.000;0.000;2023-02-01T09:07:49;17.90;49.50
66708;DHT22;53622;0.000;0.000;2023-02-01T09:10:19;17.80;49.20
66708;DHT22;53622;0.000;0.000;2023-02-01T09:13:01;17.80;49.20
66708;DHT22;53622;0.000;0.000;2023-02-01T09:15:30;17.80;49.20
66708;DHT22;53622;0.000;0.000;2023-02-01T09:18:00;17.90;49.30
66708;DHT22;53622;0.000;0.000;2023-02-01T09:20:31;17.90;49.30
66708;DHT22;53622;0.000;0.000;2023-02-01T09:23:00;17.90;49.30
66708;DHT22;53622;0.000;0.000;2023-02-01T09:25:29;18.00;49.20
66708;DHT22;53622;0.000;0.000;2023-02-01T09:27:59;18.00;49.30
66708;DHT22;53622;0.000;0.000;2023-02-01T09:30:28;18.00;49.30
66708;DHT22;53622;0.000;0.000;2023-02-01T09:32:58;18.00;49.20
66708;DHT22;53622;0.000;0.000;2023-02-01T09:35:27;18.00;49.00
66708;DHT22;53622;0.000;0.000;2023-02-01T09:37:58;18.00;49.00
66708;DHT22;53622;0.000;0.000;2023-02-01T09:40:27;18.00;49.00
66708;DHT22;53622;0.000;0.000;2023-02-01T09:43:19;18.00;48.90
66708;DHT22;53622;0.000;0.000;2023-02-01T09:45:59;17.90;48.80
66708;DHT22;53622;0.000;0.000;2023-02-01T09:48:34;17.90;48.80
66708;DHT22;53622;0.000;0.000;2023-02-01T09:51:13;17.90;48.80
66708;DHT22;53622;0.000;0.000;2023-02-01T09:53:48;17.90;48.80
66708;DHT22;53622;0.000;0.000;2023-02-01T09:56:27;17.90;48.80
66708;DHT22;53622;0.000;0.000;2023-02-01T09:59:04;17.90;48.80
66708;DHT22;53622;0.000;0.000;2023-02-01T10:01:37;17.90;48.90
66708;DHT22;53622;0.000;0.000;2023-02-01T10:04:09;17.90;49.00
66708;DHT22;53622;0.000;0.000;2023-02-01T10:06:48;17.90;48.80
66708;DHT22;53622;0.000;0.000;2023-02-01T10:09:35;17.90;48.60
66708;DHT22;53622;0.000;0.000;2023-02-01T10:15:44;17.80;48.60
66708;DHT22;53622;0.000;0.000;2023-02-01T10:18:32;17.90;48.60
66708;DHT22;53622;0.000;0.000;2023-02-01T10:21:09;17.80;48.60
66708;DHT22;53622;0.000;0.000;2023-02-01T10:26:56;17.90;48.60
66708;DHT22;53622;0.000;0.000;2023-02-01T10:29:36;17.80;48.50
66708;DHT22;53622;0.000;0.000;2023-02-01T10:32:13;17.80;48.50
66708;DHT22;53622;0.000;0.000;2023-02-01T10:34:45;17.80;49.10
66708;DHT22;53622;0.000;0.000;2023-02-01T10:37:23;17.80;48.50
66708;DHT22;53622;0.000;0.000;2023-02-01T10:39:54;17.80;48.50
66708;DHT22;53622;0.000;0.000;2023-02-01T10:42:28;17.80;48.40
66708;DHT22;53622;0.000;0.000;2023-02-01T10:44:59;17.80;48.40
66708;DHT22;53622;0.000;0.000;2023-02-01T10:47:32;17.80;48.40
66708;DHT22;53622;0.000;0.000;2023-02-01T10:50:08;17.80;48.40
66708;DHT22;53622;0.000;0.000;2023-02-01T10:52:46;17.80;48.40
66708;DHT22;53622;0.000;0.000;2023-02-01T10:55:30;17.80;48.40
66708;DHT22;53622;0.000;0.000;2023-02-01T10:58:05;17.80;48.30
66708;DHT22;53622;0.000;0.000;2023-02-01T11:00:43;17.80;48.30
66708;DHT22;53622;0.000;0.000;2023-02-01T11:03:33;17.80;48.40
66708;DHT22;53622;0.000;0.000;2023-02-01T11:06:09;17.80;48.40
66708;DHT22;53622;0.000;0.000;2023-02-01T11:08:43;17.80;48.40
66708;DHT22;53622;0.000;0.000;2023-02-01T11:11:14;17.80;48.60
66708;DHT22;53622;0.000;0.000;2023-02-01T11:13:53;17.90;48.80
66708;DHT22;53622;0.000;0.000;2023-02-01T11:16:30;17.80;48.90
66708;DHT22;53622;0.000;0.000;2023-02-01T11:19:02;17.80;49.00
66708;DHT22;53622;0.000;0.000;2023-02-01T11:21:33;17.90;49.10
66708;DHT22;53622;0.000;0.000;2023-02-01T11:24:03;17.80;49.10
66708;DHT22;53622;0.000;0.000;2023-02-01T11:26:39;17.90;49.30
66708;DHT22;53622;0.000;0.000;2023-02-01T11:29:13;17.90;49.30
66708;DHT22;53622;0.000;0.000;2023-02-01T11:31:46;17.90;49.30
66708;DHT22;53622;0.000;0.000;2023-02-01T11:34:17;17.90;49.30
66708;DHT22;53622;0.000;0.000;2023-02-01T11:36:50;17.90;49.30
66708;DHT22;53622;0.000;0.000;2023-02-01T11:39:24;17.80;49.40
66708;DHT22;53622;0.000;0.000;2023-02-01T11:41:58;17.90;49.40
66708;DHT22;53622;0.000;0.000;2023-02-01T11:44:34;17.90;49.40
66708;DHT22;53622;0.000;0.000;2023-02-01T11:47:24;17.90;49.40
66708;DHT22;53622;0.000;0.000;2023-02-01T11:49:55;17.90;49.50
66708;DHT22;53622;0.000;0.000;2023-02-01T11:52:37;18.00;49.70
66708;DHT22;53622;0.000;0.000;2023-02-01T11:55:23;18.30;49.30
66708;DHT22;53622;0.000;0.000;2023-02-01T12:01:01;18.90;48.80
66708;DHT22;53622;0.000;0.000;2023-02-01T12:04:01;19.20;48.40
66708;DHT22;53622;0.000;0.000;2023-02-01T12:06:48;19.40;48.00
66708;DHT22;53622;0.000;0.000;2023-02-01T12:09:31;19.60;47.80
66708;DHT22;53622;0.000;0.000;2023-02-01T12:12:08;19.60;47.60
66708;DHT22;53622;0.000;0.000;2023-02-01T12:14:59;19.80;47.40
66708;DHT22;53622;0.000;0.000;2023-02-01T12:17:58;19.90;47.30
66708;DHT22;53622;0.000;0.000;2023-02-01T12:20:52;20.10;46.90
66708;DHT22;53622;0.000;0.000;2023-02-01T12:26:43;20.10;46.80
66708;DHT22;53622;0.000;0.000;2023-02-01T12:29:31;20.20;46.70
66708;DHT22;53622;0.000;0.000;2023-02-01T12:32:14;20.30;46.60
66708;DHT22;53622;0.000;0.000;2023-02-01T12:35:13;20.30;46.50
66708;DHT22;53622;0.000;0.000;2023-02-01T12:38:03;20.40;46.50
66708;DHT22;53622;0.000;0.000;2023-02-01T12:40:53;20.20;46.70
66708;DHT22;53622;0.000;0.000;2023-02-01T12:44:00;20.10;47.10
66708;DHT22;53622;0.000;0.000;2023-02-01T12:46:46;20.00;47.30
66708;DHT22;53622;0.000;0.000;2023-02-01T12:49:50;20.00;47.40
66708;DHT22;53622;0.000;0.000;2023-02-01T12:52:32;20.00;47.50
66708;DHT22;53622;0.000;0.000;2023-02-01T12:55:10;20.00;47.50
66708;DHT22;53622;0.000;0.000;2023-02-01T12:57:47;20.00;47.40
66708;DHT22;53622;0.000;0.000;2023-02-01T13:00:24;19.90;47.10
66708;DHT22;53622;0.000;0.000;2023-02-01T13:03:00;19.70;47.70
66708;DHT22;53622;0.000;0.000;2023-02-01T13:05:36;19.60;48.40
66708;DHT22;53622;0.000;0.000;2023-02-01T13:08:12;19.50;48.50
66708;DHT22;53622;0.000;0.000;2023-02-01T13:10:46;19.40;49.30
66708;DHT22;53622;0.000;0.000;2023-02-01T13:13:22;19.30;49.60
66708;DHT22;53622;0.000;0.000;2023-02-01T13:16:09;19.30;49.70
66708;DHT22;53622;0.000;0.000;2023-02-01T13:18:49;19.20;49.80
66708;DHT22;53622;0.000;0.000;2023-02-01T13:21:23;19.20;49.80
66708;DHT22;53622;0.000;0.000;2023-02-01T13:23:55;19.20;50.10
66708;DHT22;53622;0.000;0.000;2023-02-01T13:26:24;19.10;50.20
66708;DHT22;53622;0.000;0.000;2023-02-01T13:28:56;19.10;50.70
66708;DHT22;53622;0.000;0.000;2023-02-01T13:31:43;19.00;51.40
66708;DHT22;53622;0.000;0.000;2023-02-01T13:34:55;19.00;50.70
66708;DHT22;53622;0.000;0.000;2023-02-01T13:37:38;18.90;50.80
66708;DHT22;53622;0.000;0.000;2023-02-01T13:40:24;18.90;51.00
66708;DHT22;53622;0.000;0.000;2023-02-01T13:43:01;18.80;51.00
66708;DHT22;53622;0.000;0.000;2023-02-01T13:45:34;18.80;51.20
66708;DHT22;53622;0.000;0.000;2023-02-01T13:48:06;18.80;51.50
66708;DHT22;53622;0.000;0.000;2023-02-01T13:50:44;18.80;51.30
66708;DHT22;53622;0.000;0.000;2023-02-01T13:53:23;18.80;51.50
66708;DHT22;53622;0.000;0.000;2023-02-01T13:55:58;18.70;51.70
66708;DHT22;53622;0.000;0.000;2023-02-01T13:58:34;18.70;51.90
66708;DHT22;53622;0.000;0.000;2023-02-01T14:01:34;18.70;51.90
66708;DHT22;53622;0.000;0.000;2023-02-01T14:04:06;18.60;52.20
66708;DHT22;53622;0.000;0.000;2023-02-01T14:06:56;18.60;52.10
66708;DHT22;53622;0.000;0.000;2023-02-01T14:09:33;18.60;52.20
66708;DHT22;53622;0.000;0.000;2023-02-01T14:12:44;18.60;52.90
66708;DHT22;53622;0.000;0.000;2023-02-01T14:15:23;18.50;52.30
66708;DHT22;53622;0.000;0.000;2023-02-01T14:17:54;18.50;52.30
66708;DHT22;53622;0.000;0.000;2023-02-01T14:20:46;18.50;52.40
66708;DHT22;53622;0.000;0.000;2023-02-01T14:23:30;18.50;52.20
66708;DHT22;53622;0.000;0.000;2023-02-01T14:26:19;18.50;52.20
66708;DHT22;53622;0.000;0.000;2023-02-01T14:28:57;18.50;52.30
66708;DHT22;53622;0.000;0.000;2023-02-01T14:31:52;18.50;52.10
66708;DHT22;53622;0.000;0.000;2023-02-01T14:34:31;18.50;51.80
66708;DHT22;53622;0.000;0.000;2023-02-01T14:37:03;18.50;52.40
66708;DHT22;53622;0.000;0.000;2023-02-01T14:39:47;18.40;52.40
66708;DHT22;53622;0.000;0.000;2023-02-01T14:42:22;18.40;52.10
66708;DHT22;53622;0.000;0.000;2023-02-01T14:44:55;18.40;52.10
66708;DHT22;53622;0.000;0.000;2023-02-01T14:47:34;18.40;52.50
66708;DHT22;53622;0.000;0.000;2023-02-01T14:50:22;18.40;53.20
66708;DHT22;53622;0.000;0.000;2023-02-01T14:53:06;18.40;52.50
66708;DHT22;53622;0.000;0.000;2023-02-01T14:55:41;18.40;53.00
66708;DHT22;53622;0.000;0.000;2023-02-01T14:58:18;18.30;52.70
66708;DHT22;53622;0.000;0.000;2023-02-01T15:00:52;18.30;52.70
66708;DHT22;53622;0.000;0.000;2023-02-01T15:03:47;18.30;52.80
66708;DHT22;53622;0.000;0.000;2023-02-01T15:06:33;18.30;52.90
66708;DHT22;53622;0.000;0.000;2023-02-01T15:09:09;18.20;53.00
66708;DHT22;53622;0.000;0.000;2023-02-01T15:12:02;18.20;53.30
66708;DHT22;53622;0.000;0.000;2023-02-01T15:14:33;18.20;53.10
66708;DHT22;53622;0.000;0.000;2023-02-01T15:17:18;18.20;53.00
66708;DHT22;53622;0.000;0.000;2023-02-01T15:19:55;18.20;53.10
66708;DHT22;53622;0.000;0.000;2023-02-01T15:22:25;18.20;53.20
66708;DHT22;53622;0.000;0.000;2023-02-01T15:24:56;18.20;53.00
66708;DHT22;53622;0.000;0.000;2023-02-01T15:27:27;18.20;52.90
66708;DHT22;53622;0.000;0.000;2023-02-01T15:30:05;18.20;54.40
66708;DHT22;53622;0.000;0.000;2023-02-01T15:32:39;18.10;53.70
66708;DHT22;53622;0.000;0.000;2023-02-01T15:35:37;18.10;53.60
66708;DHT22;53622;0.000;0.000;2023-02-01T15:41:13;18.10;53.50
66708;DHT22;53622;0.000;0.000;2023-02-01T15:43:46;18.10;53.10
66708;DHT22;53622;0.000;0.000;2023-02-01T15:46:22;18.00;53.30
66708;DHT22;53622;0.000;0.000;2023-02-01T15:48:53;18.00;53.50
66708;DHT22;53622;0.000;0.000;2023-02-01T15:51:25;18.00;53.50
66708;DHT22;53622;0.000;0.000;2023-02-01T15:53:56;18.00;53.40
66708;DHT22;53622;0.000;0.000;2023-02-01T15:56:32;18.00;53.80
66708;DHT22;53622;0.000;0.000;2023-02-01T15:59:05;18.00;53.70
66708;DHT22;53622;0.000;0.000;2023-02-01T16:01:41;18.00;53.50
66708;DHT22;53622;0.000;0.000;2023-02-01T16:04:17;18.00;53.50
66708;DHT22;53622;0.000;0.000;2023-02-01T16:06:50;18.00;53.30
66708;DHT22;53622;0.000;0.000;2023-02-01T16:09:21;18.00;53.40
66708;DHT22;53622;0.000;0.000;2023-02-01T16:11:57;18.00;53.30
66708;DHT22;53622;0.000;0.000;2023-02-01T16:14:27;18.00;53.10
66708;DHT22;53622;0.000;0.000;2023-02-01T16:16:58;18.00;53.00
66708;DHT22;53622;0.000;0.000;2023-02-01T16:19:28;18.00;52.90
66708;DHT22;53622;0.000;0.000;2023-02-01T16:21:58;18.00;53.00
66708;DHT22;53622;0.000;0.000;2023-02-01T16:24:27;17.90;53.00
66708;DHT22;53622;0.000;0.000;2023-02-01T16:26:56;17.90;53.70
66708;DHT22;53622;0.000;0.000;2023-02-01T16:29:25;17.90;53.20
66708;DHT22;53622;0.000;0.000;2023-02-01T16:31:55;17.90;53.30
66708;DHT22;53622;0.000;0.000;2023-02-01T16:34:24;17.90;53.10
66708;DHT22;53622;0.000;0.000;2023-02-01T16:36:55;18.00;53.30
66708;DHT22;53622;0.000;0.000;2023-02-01T16:39:25;17.90;53.40
66708;DHT22;53622;0.000;0.000;2023-02-01T16:41:55;17.90;53.50
66708;DHT22;53622;0.000;0.000;2023-02-01T16:44:27;18.00;53.40
66708;DHT22;53622;0.000;0.000;2023-02-01T16:46:57;17.90;53.40
66708;DHT22;53622;0.000;0.000;2023-02-01T16:49:26;18.00;54.10